Monte Belo, Brazil
Current Conditions -  °F | °C
As of 11:00 AM on Thursday 30 Oct 2014 (Local Time) from SBYS Reporting Station
Clear Clear  
Wind Chill: 86°   Ceiling: Unl
Heat Index: 86°   Visibility: 6mi
Dew Point: 61°   Wind: 14mph
Humidity: 43%   Direction: 350°N
Pressure: 29.91"   Gusts: 28mph
Location:  21.33°S, 46.37°W
Report Text: SBYS 301300Z 35012G24KT CAVOK 30/16 Q1013
Loading
Personal Weather Stations






























Interactive Weather Map
Tropical Storm Tracking
New forecast layout! Learn more

10-Day Weather Forecast

Advertisements
Track Severe Weather on mobile